sensor_id;sensor_type;location;lat;lon;timestamp;P1;durP1;ratioP1;P2;durP2;ratioP2
16792;SDS011;8513;42.662;23.350;2022-10-16T00:01:14;12.50;;;11.05;;
16792;SDS011;8513;42.662;23.350;2022-10-16T00:03:43;13.35;;;11.45;;
16792;SDS011;8513;42.662;23.350;2022-10-16T00:06:15;15.97;;;11.23;;
16792;SDS011;8513;42.662;23.350;2022-10-16T00:08:43;12.77;;;11.45;;
16792;SDS011;8513;42.662;23.350;2022-10-16T00:11:10;14.50;;;12.10;;
16792;SDS011;8513;42.662;23.350;2022-10-16T00:13:38;14.43;;;11.77;;
16792;SDS011;8513;42.662;23.350;2022-10-16T00:16:04;12.07;;;10.80;;
16792;SDS011;8513;42.662;23.350;2022-10-16T00:18:31;13.02;;;11.07;;
16792;SDS011;8513;42.662;23.350;2022-10-16T00:21:01;12.88;;;10.98;;
16792;SDS011;8513;42.662;23.350;2022-10-16T00:23:49;13.18;;;11.77;;
16792;SDS011;8513;42.662;23.350;2022-10-16T00:26:19;12.68;;;11.30;;
16792;SDS011;8513;42.662;23.350;2022-10-16T00:28:46;13.52;;;10.40;;
16792;SDS011;8513;42.662;23.350;2022-10-16T00:31:12;11.45;;;10.35;;
16792;SDS011;8513;42.662;23.350;2022-10-16T00:33:38;12.32;;;11.13;;
16792;SDS011;8513;42.662;23.350;2022-10-16T00:36:05;11.48;;;10.27;;
16792;SDS011;8513;42.662;23.350;2022-10-16T00:38:32;13.23;;;10.40;;
16792;SDS011;8513;42.662;23.350;2022-10-16T00:40:58;11.43;;;10.33;;
16792;SDS011;8513;42.662;23.350;2022-10-16T00:43:37;14.73;;;10.17;;
16792;SDS011;8513;42.662;23.350;2022-10-16T00:46:49;11.80;;;10.60;;
16792;SDS011;8513;42.662;23.350;2022-10-16T00:49:10;11.43;;;10.23;;
16792;SDS011;8513;42.662;23.350;2022-10-16T00:51:45;14.25;;;10.40;;
16792;SDS011;8513;42.662;23.350;2022-10-16T00:54:17;11.70;;;10.50;;
16792;SDS011;8513;42.662;23.350;2022-10-16T00:56:47;12.10;;;9.77;;
16792;SDS011;8513;42.662;23.350;2022-10-16T00:59:18;11.30;;;9.77;;
16792;SDS011;8513;42.662;23.350;2022-10-16T01:01:45;11.27;;;10.17;;
16792;SDS011;8513;42.662;23.350;2022-10-16T01:04:11;10.05;;;9.02;;
16792;SDS011;8513;42.662;23.350;2022-10-16T01:09:13;11.47;;;9.60;;
16792;SDS011;8513;42.662;23.350;2022-10-16T01:11:52;11.07;;;9.90;;
16792;SDS011;8513;42.662;23.350;2022-10-16T01:14:28;11.70;;;10.20;;
16792;SDS011;8513;42.662;23.350;2022-10-16T01:31:26;14.57;;;9.70;;
16792;SDS011;8513;42.662;23.350;2022-10-16T01:34:00;10.80;;;9.60;;
16792;SDS011;8513;42.662;23.350;2022-10-16T01:39:22;9.20;;;8.23;;
16792;SDS011;8513;42.662;23.350;2022-10-16T01:42:10;8.80;;;7.93;;
16792;SDS011;8513;42.662;23.350;2022-10-16T01:44:44;8.77;;;7.37;;
16792;SDS011;8513;42.662;23.350;2022-10-16T01:47:11;8.57;;;7.77;;
16792;SDS011;8513;42.662;23.350;2022-10-16T01:49:39;8.93;;;8.03;;
16792;SDS011;8513;42.662;23.350;2022-10-16T01:52:08;12.03;;;8.30;;
16792;SDS011;8513;42.662;23.350;2022-10-16T01:54:37;9.05;;;7.80;;
16792;SDS011;8513;42.662;23.350;2022-10-16T01:57:05;11.35;;;8.50;;
16792;SDS011;8513;42.662;23.350;2022-10-16T01:59:35;9.43;;;8.30;;
16792;SDS011;8513;42.662;23.350;2022-10-16T02:02:06;9.82;;;8.52;;
16792;SDS011;8513;42.662;23.350;2022-10-16T02:04:36;8.50;;;7.70;;
16792;SDS011;8513;42.662;23.350;2022-10-16T02:07:05;9.75;;;8.75;;
16792;SDS011;8513;42.662;23.350;2022-10-16T02:09:34;11.53;;;8.63;;
16792;SDS011;8513;42.662;23.350;2022-10-16T02:12:01;12.33;;;9.30;;
16792;SDS011;8513;42.662;23.350;2022-10-16T02:14:31;11.43;;;9.37;;
16792;SDS011;8513;42.662;23.350;2022-10-16T02:16:57;10.43;;;9.50;;
16792;SDS011;8513;42.662;23.350;2022-10-16T02:19:23;10.27;;;9.27;;
16792;SDS011;8513;42.662;23.350;2022-10-16T02:26:49;9.43;;;8.50;;
16792;SDS011;8513;42.662;23.350;2022-10-16T02:29:24;10.20;;;9.13;;
16792;SDS011;8513;42.662;23.350;2022-10-16T02:31:52;10.87;;;9.37;;
16792;SDS011;8513;42.662;23.350;2022-10-16T02:34:21;11.10;;;10.03;;
16792;SDS011;8513;42.662;23.350;2022-10-16T02:36:49;10.47;;;9.40;;
16792;SDS011;8513;42.662;23.350;2022-10-16T02:39:16;11.47;;;8.63;;
16792;SDS011;8513;42.662;23.350;2022-10-16T02:41:42;10.40;;;9.33;;
16792;SDS011;8513;42.662;23.350;2022-10-16T02:44:07;10.73;;;9.43;;
16792;SDS011;8513;42.662;23.350;2022-10-16T02:46:33;10.60;;;9.47;;
16792;SDS011;8513;42.662;23.350;2022-10-16T02:48:58;11.40;;;10.23;;
16792;SDS011;8513;42.662;23.350;2022-10-16T02:51:24;12.87;;;11.67;;
16792;SDS011;8513;42.662;23.350;2022-10-16T02:53:49;12.68;;;11.38;;
16792;SDS011;8513;42.662;23.350;2022-10-16T02:56:15;12.37;;;10.97;;
16792;SDS011;8513;42.662;23.350;2022-10-16T02:58:40;12.40;;;11.30;;
16792;SDS011;8513;42.662;23.350;2022-10-16T03:01:05;12.80;;;11.33;;
16792;SDS011;8513;42.662;23.350;2022-10-16T03:03:31;12.27;;;10.97;;
16792;SDS011;8513;42.662;23.350;2022-10-16T03:05:56;12.40;;;11.10;;
16792;SDS011;8513;42.662;23.350;2022-10-16T03:08:22;12.93;;;11.15;;
16792;SDS011;8513;42.662;23.350;2022-10-16T03:10:50;13.63;;;11.00;;
16792;SDS011;8513;42.662;23.350;2022-10-16T03:13:16;11.63;;;10.53;;
16792;SDS011;8513;42.662;23.350;2022-10-16T03:15:41;13.57;;;10.53;;
16792;SDS011;8513;42.662;23.350;2022-10-16T03:18:07;12.37;;;11.17;;
16792;SDS011;8513;42.662;23.350;2022-10-16T03:20:32;12.13;;;10.83;;
16792;SDS011;8513;42.662;23.350;2022-10-16T03:22:58;13.53;;;11.10;;
16792;SDS011;8513;42.662;23.350;2022-10-16T03:25:23;11.87;;;10.60;;
16792;SDS011;8513;42.662;23.350;2022-10-16T03:27:49;11.00;;;9.90;;
16792;SDS011;8513;42.662;23.350;2022-10-16T03:30:14;12.00;;;10.73;;
16792;SDS011;8513;42.662;23.350;2022-10-16T03:32:40;11.43;;;10.23;;
16792;SDS011;8513;42.662;23.350;2022-10-16T03:35:06;11.47;;;10.13;;
16792;SDS011;8513;42.662;23.350;2022-10-16T03:37:31;10.90;;;9.67;;
16792;SDS011;8513;42.662;23.350;2022-10-16T03:39:57;11.43;;;10.23;;
16792;SDS011;8513;42.662;23.350;2022-10-16T03:42:22;11.33;;;9.87;;
16792;SDS011;8513;42.662;23.350;2022-10-16T03:44:49;10.47;;;9.53;;
16792;SDS011;8513;42.662;23.350;2022-10-16T03:47:14;11.20;;;10.03;;
16792;SDS011;8513;42.662;23.350;2022-10-16T03:49:40;11.37;;;10.10;;
16792;SDS011;8513;42.662;23.350;2022-10-16T03:52:05;11.00;;;9.73;;
16792;SDS011;8513;42.662;23.350;2022-10-16T03:54:31;13.63;;;10.67;;
16792;SDS011;8513;42.662;23.350;2022-10-16T03:56:56;13.23;;;10.27;;
16792;SDS011;8513;42.662;23.350;2022-10-16T03:59:22;11.73;;;9.33;;
16792;SDS011;8513;42.662;23.350;2022-10-16T04:01:47;11.73;;;9.50;;
16792;SDS011;8513;42.662;23.350;2022-10-16T04:04:12;12.13;;;9.95;;
16792;SDS011;8513;42.662;23.350;2022-10-16T04:06:38;12.27;;;10.50;;
16792;SDS011;8513;42.662;23.350;2022-10-16T04:09:03;11.87;;;10.17;;
16792;SDS011;8513;42.662;23.350;2022-10-16T04:11:29;24.60;;;12.38;;
16792;SDS011;8513;42.662;23.350;2022-10-16T04:13:55;14.43;;;11.50;;
16792;SDS011;8513;42.662;23.350;2022-10-16T04:16:20;12.17;;;10.57;;
16792;SDS011;8513;42.662;23.350;2022-10-16T04:18:45;12.37;;;10.07;;
16792;SDS011;8513;42.662;23.350;2022-10-16T04:21:11;15.10;;;10.77;;
16792;SDS011;8513;42.662;23.350;2022-10-16T04:23:36;12.43;;;10.00;;
16792;SDS011;8513;42.662;23.350;2022-10-16T04:26:02;14.87;;;10.93;;
16792;SDS011;8513;42.662;23.350;2022-10-16T04:28:28;19.90;;;11.77;;
16792;SDS011;8513;42.662;23.350;2022-10-16T04:30:54;14.50;;;10.53;;
16792;SDS011;8513;42.662;23.350;2022-10-16T04:33:19;13.33;;;10.33;;
16792;SDS011;8513;42.662;23.350;2022-10-16T04:35:44;12.07;;;9.93;;
16792;SDS011;8513;42.662;23.350;2022-10-16T04:38:10;11.13;;;10.03;;
16792;SDS011;8513;42.662;23.350;2022-10-16T04:40:36;10.53;;;9.20;;
16792;SDS011;8513;42.662;23.350;2022-10-16T04:43:02;12.47;;;10.77;;
16792;SDS011;8513;42.662;23.350;2022-10-16T04:45:28;12.90;;;10.27;;
16792;SDS011;8513;42.662;23.350;2022-10-16T04:47:56;16.47;;;10.47;;
16792;SDS011;8513;42.662;23.350;2022-10-16T04:50:23;20.27;;;11.33;;
16792;SDS011;8513;42.662;23.350;2022-10-16T04:52:48;11.63;;;9.83;;
16792;SDS011;8513;42.662;23.350;2022-10-16T04:55:14;12.17;;;9.60;;
16792;SDS011;8513;42.662;23.350;2022-10-16T04:57:40;10.33;;;9.33;;
16792;SDS011;8513;42.662;23.350;2022-10-16T05:00:05;10.97;;;9.20;;
16792;SDS011;8513;42.662;23.350;2022-10-16T05:02:31;12.23;;;9.60;;
16792;SDS011;8513;42.662;23.350;2022-10-16T05:04:56;15.33;;;9.77;;
16792;SDS011;8513;42.662;23.350;2022-10-16T05:07:22;14.57;;;10.70;;
16792;SDS011;8513;42.662;23.350;2022-10-16T05:09:47;16.60;;;10.93;;
16792;SDS011;8513;42.662;23.350;2022-10-16T05:12:13;12.43;;;10.30;;
16792;SDS011;8513;42.662;23.350;2022-10-16T05:14:38;16.93;;;11.57;;
16792;SDS011;8513;42.662;23.350;2022-10-16T05:17:04;12.00;;;10.47;;
16792;SDS011;8513;42.662;23.350;2022-10-16T05:19:29;12.33;;;9.97;;
16792;SDS011;8513;42.662;23.350;2022-10-16T05:21:55;12.77;;;10.80;;
16792;SDS011;8513;42.662;23.350;2022-10-16T05:24:20;14.37;;;11.73;;
16792;SDS011;8513;42.662;23.350;2022-10-16T05:26:46;14.07;;;11.90;;
16792;SDS011;8513;42.662;23.350;2022-10-16T05:29:12;12.77;;;11.30;;
16792;SDS011;8513;42.662;23.350;2022-10-16T05:31:37;10.97;;;9.90;;
16792;SDS011;8513;42.662;23.350;2022-10-16T05:34:02;14.70;;;11.70;;
16792;SDS011;8513;42.662;23.350;2022-10-16T05:36:33;13.77;;;11.03;;
16792;SDS011;8513;42.662;23.350;2022-10-16T05:38:58;16.00;;;12.00;;
16792;SDS011;8513;42.662;23.350;2022-10-16T05:41:23;12.60;;;11.47;;
16792;SDS011;8513;42.662;23.350;2022-10-16T05:43:51;12.57;;;11.37;;
16792;SDS011;8513;42.662;23.350;2022-10-16T05:46:17;12.60;;;11.33;;
16792;SDS011;8513;42.662;23.350;2022-10-16T05:48:43;15.73;;;12.47;;
16792;SDS011;8513;42.662;23.350;2022-10-16T05:51:09;13.67;;;12.33;;
16792;SDS011;8513;42.662;23.350;2022-10-16T05:53:36;13.70;;;12.30;;
16792;SDS011;8513;42.662;23.350;2022-10-16T05:56:03;15.40;;;12.37;;
16792;SDS011;8513;42.662;23.350;2022-10-16T05:58:30;11.37;;;10.27;;
16792;SDS011;8513;42.662;23.350;2022-10-16T06:01:02;10.60;;;9.20;;
16792;SDS011;8513;42.662;23.350;2022-10-16T06:03:29;9.93;;;9.00;;
16792;SDS011;8513;42.662;23.350;2022-10-16T06:05:55;10.30;;;9.20;;
16792;SDS011;8513;42.662;23.350;2022-10-16T06:08:21;10.73;;;8.67;;
16792;SDS011;8513;42.662;23.350;2022-10-16T06:10:47;8.93;;;7.77;;
16792;SDS011;8513;42.662;23.350;2022-10-16T06:13:14;9.13;;;7.67;;
16792;SDS011;8513;42.662;23.350;2022-10-16T06:15:41;9.53;;;8.57;;
16792;SDS011;8513;42.662;23.350;2022-10-16T06:18:10;10.47;;;9.37;;
16792;SDS011;8513;42.662;23.350;2022-10-16T06:20:36;14.83;;;13.13;;
16792;SDS011;8513;42.662;23.350;2022-10-16T06:23:02;11.17;;;9.23;;
16792;SDS011;8513;42.662;23.350;2022-10-16T06:25:29;10.77;;;8.50;;
16792;SDS011;8513;42.662;23.350;2022-10-16T06:27:55;12.10;;;8.67;;
16792;SDS011;8513;42.662;23.350;2022-10-16T06:30:21;10.67;;;7.37;;
16792;SDS011;8513;42.662;23.350;2022-10-16T06:32:46;10.47;;;6.90;;
16792;SDS011;8513;42.662;23.350;2022-10-16T06:35:12;8.17;;;7.03;;
16792;SDS011;8513;42.662;23.350;2022-10-16T06:37:37;8.80;;;7.37;;
16792;SDS011;8513;42.662;23.350;2022-10-16T06:40:03;7.47;;;6.50;;
16792;SDS011;8513;42.662;23.350;2022-10-16T06:42:29;7.47;;;6.57;;
16792;SDS011;8513;42.662;23.350;2022-10-16T06:44:55;8.43;;;6.60;;
16792;SDS011;8513;42.662;23.350;2022-10-16T06:47:20;8.45;;;7.38;;
16792;SDS011;8513;42.662;23.350;2022-10-16T06:49:46;9.13;;;6.63;;
16792;SDS011;8513;42.662;23.350;2022-10-16T06:52:11;8.13;;;6.93;;
16792;SDS011;8513;42.662;23.350;2022-10-16T06:54:37;7.93;;;6.50;;
16792;SDS011;8513;42.662;23.350;2022-10-16T06:57:02;7.97;;;7.23;;
16792;SDS011;8513;42.662;23.350;2022-10-16T06:59:27;10.30;;;6.95;;
16792;SDS011;8513;42.662;23.350;2022-10-16T07:01:53;7.95;;;6.68;;
16792;SDS011;8513;42.662;23.350;2022-10-16T07:04:18;8.35;;;7.43;;
16792;SDS011;8513;42.662;23.350;2022-10-16T07:06:44;8.83;;;7.93;;
16792;SDS011;8513;42.662;23.350;2022-10-16T07:09:10;10.33;;;8.57;;
16792;SDS011;8513;42.662;23.350;2022-10-16T07:11:36;10.13;;;8.63;;
16792;SDS011;8513;42.662;23.350;2022-10-16T07:14:03;12.23;;;9.17;;
16792;SDS011;8513;42.662;23.350;2022-10-16T07:16:30;10.75;;;9.48;;
16792;SDS011;8513;42.662;23.350;2022-10-16T07:18:58;11.25;;;10.18;;
16792;SDS011;8513;42.662;23.350;2022-10-16T07:21:32;11.00;;;9.90;;
16792;SDS011;8513;42.662;23.350;2022-10-16T07:24:02;10.43;;;9.37;;
16792;SDS011;8513;42.662;23.350;2022-10-16T07:26:30;13.25;;;9.48;;
16792;SDS011;8513;42.662;23.350;2022-10-16T07:28:58;10.67;;;9.57;;
16792;SDS011;8513;42.662;23.350;2022-10-16T07:31:23;10.97;;;9.83;;
16792;SDS011;8513;42.662;23.350;2022-10-16T07:33:50;10.27;;;9.15;;
16792;SDS011;8513;42.662;23.350;2022-10-16T07:36:16;12.20;;;9.73;;
16792;SDS011;8513;42.662;23.350;2022-10-16T07:38:43;10.40;;;9.35;;
16792;SDS011;8513;42.662;23.350;2022-10-16T07:41:10;10.73;;;9.63;;
16792;SDS011;8513;42.662;23.350;2022-10-16T07:43:38;11.00;;;8.80;;
16792;SDS011;8513;42.662;23.350;2022-10-16T07:46:04;10.05;;;8.75;;
16792;SDS011;8513;42.662;23.350;2022-10-16T07:48:30;11.95;;;9.07;;
16792;SDS011;8513;42.662;23.350;2022-10-16T07:51:01;9.95;;;8.93;;
16792;SDS011;8513;42.662;23.350;2022-10-16T07:53:28;9.95;;;8.90;;
16792;SDS011;8513;42.662;23.350;2022-10-16T07:56:00;10.10;;;8.55;;
16792;SDS011;8513;42.662;23.350;2022-10-16T07:58:28;9.82;;;8.30;;
16792;SDS011;8513;42.662;23.350;2022-10-16T08:00:54;10.27;;;9.27;;
16792;SDS011;8513;42.662;23.350;2022-10-16T08:03:20;9.88;;;8.02;;
16792;SDS011;8513;42.662;23.350;2022-10-16T08:05:46;9.40;;;7.68;;
16792;SDS011;8513;42.662;23.350;2022-10-16T08:08:15;8.43;;;7.60;;
16792;SDS011;8513;42.662;23.350;2022-10-16T08:10:41;8.77;;;7.83;;
16792;SDS011;8513;42.662;23.350;2022-10-16T08:13:07;9.32;;;8.02;;
16792;SDS011;8513;42.662;23.350;2022-10-16T08:15:33;9.20;;;7.63;;
16792;SDS011;8513;42.662;23.350;2022-10-16T08:17:59;8.23;;;7.43;;
16792;SDS011;8513;42.662;23.350;2022-10-16T08:20:27;9.82;;;7.70;;
16792;SDS011;8513;42.662;23.350;2022-10-16T08:22:54;9.20;;;7.30;;
16792;SDS011;8513;42.662;23.350;2022-10-16T08:25:21;9.98;;;7.80;;
16792;SDS011;8513;42.662;23.350;2022-10-16T08:27:47;9.10;;;7.30;;
16792;SDS011;8513;42.662;23.350;2022-10-16T08:30:12;8.40;;;6.82;;
16792;SDS011;8513;42.662;23.350;2022-10-16T08:32:38;7.50;;;6.80;;
16792;SDS011;8513;42.662;23.350;2022-10-16T08:35:03;7.85;;;6.35;;
16792;SDS011;8513;42.662;23.350;2022-10-16T08:37:30;6.53;;;5.88;;
16792;SDS011;8513;42.662;23.350;2022-10-16T08:39:56;6.28;;;5.57;;
16792;SDS011;8513;42.662;23.350;2022-10-16T08:42:25;6.43;;;5.82;;
16792;SDS011;8513;42.662;23.350;2022-10-16T08:48:19;7.43;;;6.10;;
16792;SDS011;8513;42.662;23.350;2022-10-16T08:51:22;7.00;;;5.40;;
16792;SDS011;8513;42.662;23.350;2022-10-16T08:56:20;9.27;;;5.43;;
16792;SDS011;8513;42.662;23.350;2022-10-16T08:58:46;5.88;;;4.55;;
16792;SDS011;8513;42.662;23.350;2022-10-16T09:01:14;6.50;;;4.75;;
16792;SDS011;8513;42.662;23.350;2022-10-16T09:03:52;7.55;;;4.47;;
16792;SDS011;8513;42.662;23.350;2022-10-16T09:12:00;6.60;;;4.30;;
16792;SDS011;8513;42.662;23.350;2022-10-16T09:17:30;6.03;;;4.57;;
16792;SDS011;8513;42.662;23.350;2022-10-16T09:25:28;3.53;;;3.22;;
16792;SDS011;8513;42.662;23.350;2022-10-16T09:27:54;5.38;;;4.00;;
16792;SDS011;8513;42.662;23.350;2022-10-16T09:30:20;4.20;;;3.80;;
16792;SDS011;8513;42.662;23.350;2022-10-16T09:32:47;5.38;;;4.25;;
16792;SDS011;8513;42.662;23.350;2022-10-16T09:35:16;5.20;;;4.05;;
16792;SDS011;8513;42.662;23.350;2022-10-16T09:37:46;5.38;;;3.85;;
16792;SDS011;8513;42.662;23.350;2022-10-16T09:40:30;4.30;;;3.38;;
16792;SDS011;8513;42.662;23.350;2022-10-16T09:46:07;4.53;;;3.28;;
16792;SDS011;8513;42.662;23.350;2022-10-16T09:48:47;4.38;;;3.42;;
16792;SDS011;8513;42.662;23.350;2022-10-16T09:51:20;3.90;;;3.50;;
16792;SDS011;8513;42.662;23.350;2022-10-16T09:53:49;3.65;;;3.35;;
16792;SDS011;8513;42.662;23.350;2022-10-16T09:56:21;3.60;;;3.30;;
16792;SDS011;8513;42.662;23.350;2022-10-16T09:58:55;4.53;;;3.58;;
16792;SDS011;8513;42.662;23.350;2022-10-16T10:01:24;5.13;;;3.75;;
16792;SDS011;8513;42.662;23.350;2022-10-16T10:03:55;3.85;;;3.55;;
16792;SDS011;8513;42.662;23.350;2022-10-16T10:06:36;3.80;;;3.50;;
16792;SDS011;8513;42.662;23.350;2022-10-16T10:11:41;3.20;;;2.85;;
16792;SDS011;8513;42.662;23.350;2022-10-16T10:16:43;6.57;;;3.33;;
16792;SDS011;8513;42.662;23.350;2022-10-16T10:19:16;5.63;;;3.50;;
16792;SDS011;8513;42.662;23.350;2022-10-16T10:21:43;4.05;;;2.95;;
16792;SDS011;8513;42.662;23.350;2022-10-16T10:24:12;3.75;;;3.15;;
16792;SDS011;8513;42.662;23.350;2022-10-16T10:26:40;4.95;;;3.10;;
16792;SDS011;8513;42.662;23.350;2022-10-16T10:34:35;4.70;;;3.67;;
16792;SDS011;8513;42.662;23.350;2022-10-16T10:50:57;3.90;;;3.20;;
16792;SDS011;8513;42.662;23.350;2022-10-16T10:53:52;3.55;;;3.25;;
16792;SDS011;8513;42.662;23.350;2022-10-16T10:56:44;3.25;;;2.95;;
16792;SDS011;8513;42.662;23.350;2022-10-16T11:05:26;2.60;;;2.40;;
16792;SDS011;8513;42.662;23.350;2022-10-16T11:08:02;4.25;;;2.70;;
16792;SDS011;8513;42.662;23.350;2022-10-16T11:16:53;4.00;;;2.65;;
16792;SDS011;8513;42.662;23.350;2022-10-16T11:22:33;2.60;;;2.40;;
16792;SDS011;8513;42.662;23.350;2022-10-16T11:24:55;2.80;;;2.45;;
16792;SDS011;8513;42.662;23.350;2022-10-16T11:27:48;3.20;;;2.60;;
16792;SDS011;8513;42.662;23.350;2022-10-16T11:30:24;4.25;;;2.40;;
16792;SDS011;8513;42.662;23.350;2022-10-16T11:33:00;2.78;;;2.50;;
16792;SDS011;8513;42.662;23.350;2022-10-16T11:38:02;2.67;;;2.47;;
16792;SDS011;8513;42.662;23.350;2022-10-16T11:40:37;2.35;;;1.90;;
16792;SDS011;8513;42.662;23.350;2022-10-16T11:43:13;2.30;;;1.90;;
16792;SDS011;8513;42.662;23.350;2022-10-16T11:45:45;2.83;;;2.55;;
16792;SDS011;8513;42.662;23.350;2022-10-16T11:51:39;3.35;;;2.85;;
16792;SDS011;8513;42.662;23.350;2022-10-16T11:56:50;4.45;;;2.10;;
16792;SDS011;8513;42.662;23.350;2022-10-16T12:02:28;3.20;;;2.78;;
16792;SDS011;8513;42.662;23.350;2022-10-16T12:04:42;3.47;;;2.90;;
16792;SDS011;8513;42.662;23.350;2022-10-16T12:07:14;2.85;;;2.60;;
16792;SDS011;8513;42.662;23.350;2022-10-16T12:09:45;3.38;;;2.70;;
16792;SDS011;8513;42.662;23.350;2022-10-16T12:15:19;3.97;;;3.58;;
16792;SDS011;8513;42.662;23.350;2022-10-16T12:17:56;3.08;;;2.55;;
16792;SDS011;8513;42.662;23.350;2022-10-16T12:22:56;3.92;;;3.20;;
16792;SDS011;8513;42.662;23.350;2022-10-16T12:25:30;5.25;;;2.60;;
16792;SDS011;8513;42.662;23.350;2022-10-16T12:28:02;3.05;;;2.30;;
16792;SDS011;8513;42.662;23.350;2022-10-16T12:30:51;3.28;;;2.60;;
16792;SDS011;8513;42.662;23.350;2022-10-16T12:33:20;3.10;;;2.83;;
16792;SDS011;8513;42.662;23.350;2022-10-16T12:35:57;3.60;;;3.30;;
16792;SDS011;8513;42.662;23.350;2022-10-16T12:38:38;3.35;;;3.05;;
16792;SDS011;8513;42.662;23.350;2022-10-16T12:41:12;2.95;;;2.65;;
16792;SDS011;8513;42.662;23.350;2022-10-16T12:48:33;3.15;;;2.83;;
16792;SDS011;8513;42.662;23.350;2022-10-16T12:56:39;3.45;;;3.15;;
16792;SDS011;8513;42.662;23.350;2022-10-16T12:59:20;3.35;;;2.95;;
16792;SDS011;8513;42.662;23.350;2022-10-16T13:10:26;3.45;;;3.13;;
16792;SDS011;8513;42.662;23.350;2022-10-16T13:13:06;2.92;;;2.72;;
16792;SDS011;8513;42.662;23.350;2022-10-16T13:16:02;2.83;;;2.63;;
16792;SDS011;8513;42.662;23.350;2022-10-16T13:29:53;3.58;;;3.28;;
16792;SDS011;8513;42.662;23.350;2022-10-16T13:32:25;3.33;;;2.72;;
16792;SDS011;8513;42.662;23.350;2022-10-16T13:34:52;5.13;;;3.00;;
16792;SDS011;8513;42.662;23.350;2022-10-16T13:37:19;4.65;;;3.30;;
16792;SDS011;8513;42.662;23.350;2022-10-16T13:39:48;3.60;;;3.30;;
16792;SDS011;8513;42.662;23.350;2022-10-16T13:42:20;3.47;;;3.25;;
16792;SDS011;8513;42.662;23.350;2022-10-16T13:44:51;3.30;;;3.08;;
16792;SDS011;8513;42.662;23.350;2022-10-16T13:47:19;3.30;;;3.00;;
16792;SDS011;8513;42.662;23.350;2022-10-16T13:49:47;3.65;;;3.20;;
16792;SDS011;8513;42.662;23.350;2022-10-16T13:52:23;3.50;;;3.20;;
16792;SDS011;8513;42.662;23.350;2022-10-16T13:54:49;4.10;;;3.70;;
16792;SDS011;8513;42.662;23.350;2022-10-16T13:57:15;3.40;;;3.00;;
16792;SDS011;8513;42.662;23.350;2022-10-16T13:59:41;4.05;;;3.30;;
16792;SDS011;8513;42.662;23.350;2022-10-16T14:02:25;5.88;;;3.20;;
16792;SDS011;8513;42.662;23.350;2022-10-16T14:04:57;3.40;;;3.10;;
16792;SDS011;8513;42.662;23.350;2022-10-16T14:07:24;3.00;;;2.78;;
16792;SDS011;8513;42.662;23.350;2022-10-16T14:09:53;5.63;;;2.97;;
16792;SDS011;8513;42.662;23.350;2022-10-16T14:12:20;3.85;;;3.28;;
16792;SDS011;8513;42.662;23.350;2022-10-16T14:14:47;3.47;;;3.05;;
16792;SDS011;8513;42.662;23.350;2022-10-16T14:17:22;4.93;;;3.42;;
16792;SDS011;8513;42.662;23.350;2022-10-16T14:19:51;4.22;;;3.05;;
16792;SDS011;8513;42.662;23.350;2022-10-16T14:22:35;4.25;;;3.03;;
16792;SDS011;8513;42.662;23.350;2022-10-16T14:30:23;3.85;;;3.03;;
16792;SDS011;8513;42.662;23.350;2022-10-16T14:32:59;4.22;;;3.42;;
16792;SDS011;8513;42.662;23.350;2022-10-16T14:38:03;3.85;;;2.65;;
16792;SDS011;8513;42.662;23.350;2022-10-16T14:40:31;4.43;;;3.15;;
16792;SDS011;8513;42.662;23.350;2022-10-16T14:42:59;3.25;;;2.50;;
16792;SDS011;8513;42.662;23.350;2022-10-16T14:45:27;5.90;;;3.00;;
16792;SDS011;8513;42.662;23.350;2022-10-16T14:47:57;5.32;;;2.95;;
16792;SDS011;8513;42.662;23.350;2022-10-16T14:50:25;4.93;;;3.50;;
16792;SDS011;8513;42.662;23.350;2022-10-16T14:52:51;3.40;;;3.10;;
16792;SDS011;8513;42.662;23.350;2022-10-16T14:55:16;3.50;;;2.78;;
16792;SDS011;8513;42.662;23.350;2022-10-16T14:57:42;3.70;;;3.30;;
16792;SDS011;8513;42.662;23.350;2022-10-16T15:00:19;2.88;;;2.58;;
16792;SDS011;8513;42.662;23.350;2022-10-16T15:02:48;5.25;;;3.28;;
16792;SDS011;8513;42.662;23.350;2022-10-16T15:07:45;3.63;;;2.80;;
16792;SDS011;8513;42.662;23.350;2022-10-16T15:10:15;3.25;;;2.90;;
16792;SDS011;8513;42.662;23.350;2022-10-16T15:12:42;4.45;;;2.67;;
16792;SDS011;8513;42.662;23.350;2022-10-16T15:17:49;3.85;;;2.97;;
16792;SDS011;8513;42.662;23.350;2022-10-16T15:20:17;5.32;;;3.10;;
16792;SDS011;8513;42.662;23.350;2022-10-16T15:22:43;5.97;;;3.45;;
16792;SDS011;8513;42.662;23.350;2022-10-16T15:25:29;4.55;;;3.65;;
16792;SDS011;8513;42.662;23.350;2022-10-16T15:27:54;4.85;;;3.47;;
16792;SDS011;8513;42.662;23.350;2022-10-16T15:30:19;4.75;;;3.80;;
16792;SDS011;8513;42.662;23.350;2022-10-16T15:32:45;4.18;;;3.55;;
16792;SDS011;8513;42.662;23.350;2022-10-16T15:35:10;5.57;;;3.75;;
16792;SDS011;8513;42.662;23.350;2022-10-16T15:37:36;3.97;;;3.50;;
16792;SDS011;8513;42.662;23.350;2022-10-16T15:40:01;5.45;;;3.55;;
16792;SDS011;8513;42.662;23.350;2022-10-16T15:42:27;5.28;;;3.65;;
16792;SDS011;8513;42.662;23.350;2022-10-16T15:44:52;4.32;;;3.92;;
16792;SDS011;8513;42.662;23.350;2022-10-16T15:47:18;4.95;;;3.60;;
16792;SDS011;8513;42.662;23.350;2022-10-16T15:49:43;5.50;;;4.13;;
16792;SDS011;8513;42.662;23.350;2022-10-16T15:52:09;7.25;;;3.80;;
16792;SDS011;8513;42.662;23.350;2022-10-16T15:54:34;7.00;;;4.00;;
16792;SDS011;8513;42.662;23.350;2022-10-16T15:57:00;7.57;;;4.43;;
16792;SDS011;8513;42.662;23.350;2022-10-16T15:59:25;5.35;;;4.28;;
16792;SDS011;8513;42.662;23.350;2022-10-16T16:01:50;10.05;;;4.53;;
16792;SDS011;8513;42.662;23.350;2022-10-16T16:04:16;6.20;;;3.65;;
16792;SDS011;8513;42.662;23.350;2022-10-16T16:06:41;6.38;;;4.13;;
16792;SDS011;8513;42.662;23.350;2022-10-16T16:09:09;10.52;;;4.60;;
16792;SDS011;8513;42.662;23.350;2022-10-16T16:11:36;5.45;;;4.13;;
16792;SDS011;8513;42.662;23.350;2022-10-16T16:14:03;10.85;;;4.57;;
16792;SDS011;8513;42.662;23.350;2022-10-16T16:16:32;8.70;;;4.55;;
16792;SDS011;8513;42.662;23.350;2022-10-16T16:19:02;7.95;;;5.53;;
16792;SDS011;8513;42.662;23.350;2022-10-16T16:21:29;6.95;;;5.03;;
16792;SDS011;8513;42.662;23.350;2022-10-16T16:23:55;7.82;;;7.05;;
16792;SDS011;8513;42.662;23.350;2022-10-16T16:26:24;8.48;;;5.40;;
16792;SDS011;8513;42.662;23.350;2022-10-16T16:28:51;9.73;;;6.30;;
16792;SDS011;8513;42.662;23.350;2022-10-16T16:31:17;8.98;;;5.20;;
16792;SDS011;8513;42.662;23.350;2022-10-16T16:33:42;10.40;;;5.95;;
16792;SDS011;8513;42.662;23.350;2022-10-16T16:36:08;9.00;;;6.13;;
16792;SDS011;8513;42.662;23.350;2022-10-16T16:38:34;9.45;;;5.90;;
16792;SDS011;8513;42.662;23.350;2022-10-16T16:41:00;10.98;;;6.85;;
16792;SDS011;8513;42.662;23.350;2022-10-16T16:43:36;16.42;;;7.75;;
16792;SDS011;8513;42.662;23.350;2022-10-16T16:46:01;13.27;;;6.70;;
16792;SDS011;8513;42.662;23.350;2022-10-16T16:48:28;13.90;;;6.95;;
16792;SDS011;8513;42.662;23.350;2022-10-16T16:50:53;12.23;;;6.53;;
16792;SDS011;8513;42.662;23.350;2022-10-16T16:53:19;13.80;;;7.15;;
16792;SDS011;8513;42.662;23.350;2022-10-16T16:55:44;15.27;;;7.00;;
16792;SDS011;8513;42.662;23.350;2022-10-16T16:58:09;14.75;;;6.85;;
16792;SDS011;8513;42.662;23.350;2022-10-16T17:00:35;10.75;;;6.18;;
16792;SDS011;8513;42.662;23.350;2022-10-16T17:03:00;14.25;;;6.35;;
16792;SDS011;8513;42.662;23.350;2022-10-16T17:05:26;12.50;;;7.10;;
16792;SDS011;8513;42.662;23.350;2022-10-16T17:07:51;13.48;;;6.55;;
16792;SDS011;8513;42.662;23.350;2022-10-16T17:10:17;13.52;;;6.38;;
16792;SDS011;8513;42.662;23.350;2022-10-16T17:12:42;14.35;;;6.35;;
16792;SDS011;8513;42.662;23.350;2022-10-16T17:15:08;11.93;;;6.75;;